sensor_id;sensor_type;location;lat;lon;timestamp;temperature;humidity
73572;DHT22;61854;48.510;-2.770;2023-09-19T00:00:30;15.60;99.90
73572;DHT22;61854;48.510;-2.770;2023-09-19T00:02:57;15.60;99.90
73572;DHT22;61854;48.510;-2.770;2023-09-19T00:05:25;15.50;99.90
73572;DHT22;61854;48.510;-2.770;2023-09-19T00:07:54;15.50;99.90
73572;DHT22;61854;48.510;-2.770;2023-09-19T00:10:21;15.40;99.90
73572;DHT22;61854;48.510;-2.770;2023-09-19T00:12:51;15.40;99.90
73572;DHT22;61854;48.510;-2.770;2023-09-19T00:15:26;15.40;99.90
73572;DHT22;61854;48.510;-2.770;2023-09-19T00:17:55;15.40;99.90
73572;DHT22;61854;48.510;-2.770;2023-09-19T00:20:20;15.40;99.90
73572;DHT22;61854;48.510;-2.770;2023-09-19T00:22:50;15.30;99.90
73572;DHT22;61854;48.510;-2.770;2023-09-19T00:25:19;15.30;99.90
73572;DHT22;61854;48.510;-2.770;2023-09-19T00:27:45;15.30;99.90
73572;DHT22;61854;48.510;-2.770;2023-09-19T00:30:17;15.30;99.90
73572;DHT22;61854;48.510;-2.770;2023-09-19T00:32:47;15.30;99.90
73572;DHT22;61854;48.510;-2.770;2023-09-19T00:35:14;15.30;99.90
73572;DHT22;61854;48.510;-2.770;2023-09-19T00:37:41;15.30;99.90
73572;DHT22;61854;48.510;-2.770;2023-09-19T00:40:08;15.30;99.90
73572;DHT22;61854;48.510;-2.770;2023-09-19T00:42:42;15.20;99.90
73572;DHT22;61854;48.510;-2.770;2023-09-19T00:45:09;15.20;99.90
73572;DHT22;61854;48.510;-2.770;2023-09-19T00:47:46;15.20;99.90
73572;DHT22;61854;48.510;-2.770;2023-09-19T00:50:16;15.20;99.90
73572;DHT22;61854;48.510;-2.770;2023-09-19T00:52:43;15.10;99.90
73572;DHT22;61854;48.510;-2.770;2023-09-19T00:55:10;15.20;99.90
73572;DHT22;61854;48.510;-2.770;2023-09-19T00:57:37;15.20;99.90
73572;DHT22;61854;48.510;-2.770;2023-09-19T01:00:05;15.20;99.90
73572;DHT22;61854;48.510;-2.770;2023-09-19T01:02:32;15.20;99.90
73572;DHT22;61854;48.510;-2.770;2023-09-19T01:04:58;15.20;99.90
73572;DHT22;61854;48.510;-2.770;2023-09-19T01:07:25;15.30;99.90
73572;DHT22;61854;48.510;-2.770;2023-09-19T01:09:51;15.30;99.90
73572;DHT22;61854;48.510;-2.770;2023-09-19T01:12:25;15.30;99.90
73572;DHT22;61854;48.510;-2.770;2023-09-19T01:14:59;15.30;99.90
73572;DHT22;61854;48.510;-2.770;2023-09-19T01:17:34;15.30;99.90
73572;DHT22;61854;48.510;-2.770;2023-09-19T01:20:19;15.40;99.90
73572;DHT22;61854;48.510;-2.770;2023-09-19T01:22:53;15.30;99.90
73572;DHT22;61854;48.510;-2.770;2023-09-19T01:31:02;15.40;99.90
73572;DHT22;61854;48.510;-2.770;2023-09-19T01:33:47;15.40;99.90
73572;DHT22;61854;48.510;-2.770;2023-09-19T01:36:16;15.40;99.90
73572;DHT22;61854;48.510;-2.770;2023-09-19T01:38:42;15.30;99.90
73572;DHT22;61854;48.510;-2.770;2023-09-19T01:41:12;15.30;99.90
73572;DHT22;61854;48.510;-2.770;2023-09-19T01:43:42;15.40;99.90
73572;DHT22;61854;48.510;-2.770;2023-09-19T01:46:29;15.40;99.90
73572;DHT22;61854;48.510;-2.770;2023-09-19T01:49:22;15.40;99.90
73572;DHT22;61854;48.510;-2.770;2023-09-19T01:52:05;15.50;99.90
73572;DHT22;61854;48.510;-2.770;2023-09-19T01:54:41;15.50;99.90
73572;DHT22;61854;48.510;-2.770;2023-09-19T01:57:22;15.50;99.90
73572;DHT22;61854;48.510;-2.770;2023-09-19T02:00:06;15.60;99.90
73572;DHT22;61854;48.510;-2.770;2023-09-19T02:02:40;15.50;99.90
73572;DHT22;61854;48.510;-2.770;2023-09-19T02:05:07;15.50;99.90
73572;DHT22;61854;48.510;-2.770;2023-09-19T02:07:33;15.50;99.90
73572;DHT22;61854;48.510;-2.770;2023-09-19T02:09:59;15.50;99.90
73572;DHT22;61854;48.510;-2.770;2023-09-19T02:12:32;15.60;99.90
73572;DHT22;61854;48.510;-2.770;2023-09-19T02:15:01;15.80;99.90
73572;DHT22;61854;48.510;-2.770;2023-09-19T02:17:26;15.70;99.90
73572;DHT22;61854;48.510;-2.770;2023-09-19T02:19:53;15.80;99.90
73572;DHT22;61854;48.510;-2.770;2023-09-19T02:22:20;15.80;99.90
73572;DHT22;61854;48.510;-2.770;2023-09-19T02:24:46;15.70;99.90
73572;DHT22;61854;48.510;-2.770;2023-09-19T02:27:13;15.70;99.90
73572;DHT22;61854;48.510;-2.770;2023-09-19T02:29:41;15.80;99.90
73572;DHT22;61854;48.510;-2.770;2023-09-19T02:32:07;15.80;99.90
73572;DHT22;61854;48.510;-2.770;2023-09-19T02:34:35;15.80;99.90
73572;DHT22;61854;48.510;-2.770;2023-09-19T02:37:03;15.80;99.90
73572;DHT22;61854;48.510;-2.770;2023-09-19T02:39:30;15.80;99.90
73572;DHT22;61854;48.510;-2.770;2023-09-19T02:41:56;15.80;99.90
73572;DHT22;61854;48.510;-2.770;2023-09-19T02:44:22;15.90;99.90
73572;DHT22;61854;48.510;-2.770;2023-09-19T02:46:49;15.90;99.90
73572;DHT22;61854;48.510;-2.770;2023-09-19T02:49:15;16.00;99.90
73572;DHT22;61854;48.510;-2.770;2023-09-19T02:51:41;16.00;99.90
73572;DHT22;61854;48.510;-2.770;2023-09-19T02:54:07;16.00;99.90
73572;DHT22;61854;48.510;-2.770;2023-09-19T02:56:32;15.90;99.90
73572;DHT22;61854;48.510;-2.770;2023-09-19T02:58:58;16.00;99.90
73572;DHT22;61854;48.510;-2.770;2023-09-19T03:01:26;15.90;99.90
73572;DHT22;61854;48.510;-2.770;2023-09-19T03:03:52;16.00;99.90
73572;DHT22;61854;48.510;-2.770;2023-09-19T03:06:19;16.10;99.90
73572;DHT22;61854;48.510;-2.770;2023-09-19T03:08:46;16.00;99.90
73572;DHT22;61854;48.510;-2.770;2023-09-19T03:11:12;16.00;99.90
73572;DHT22;61854;48.510;-2.770;2023-09-19T03:13:40;16.00;99.90
73572;DHT22;61854;48.510;-2.770;2023-09-19T03:16:07;16.00;99.90
73572;DHT22;61854;48.510;-2.770;2023-09-19T03:18:37;16.10;99.90
73572;DHT22;61854;48.510;-2.770;2023-09-19T03:21:02;16.00;99.90
73572;DHT22;61854;48.510;-2.770;2023-09-19T03:23:28;16.00;99.90
73572;DHT22;61854;48.510;-2.770;2023-09-19T03:25:57;16.00;99.90
73572;DHT22;61854;48.510;-2.770;2023-09-19T03:28:24;16.10;99.90
73572;DHT22;61854;48.510;-2.770;2023-09-19T03:31:04;16.10;99.90
73572;DHT22;61854;48.510;-2.770;2023-09-19T03:33:29;16.00;99.90
73572;DHT22;61854;48.510;-2.770;2023-09-19T03:35:59;15.90;99.90
73572;DHT22;61854;48.510;-2.770;2023-09-19T03:38:27;16.00;99.90
73572;DHT22;61854;48.510;-2.770;2023-09-19T03:40:54;16.00;99.90
73572;DHT22;61854;48.510;-2.770;2023-09-19T03:43:20;16.00;99.90
73572;DHT22;61854;48.510;-2.770;2023-09-19T03:45:45;15.90;99.90
73572;DHT22;61854;48.510;-2.770;2023-09-19T03:48:12;15.80;99.90
73572;DHT22;61854;48.510;-2.770;2023-09-19T03:50:38;15.90;99.90
73572;DHT22;61854;48.510;-2.770;2023-09-19T03:53:04;16.00;99.90
73572;DHT22;61854;48.510;-2.770;2023-09-19T03:55:32;16.00;99.90
73572;DHT22;61854;48.510;-2.770;2023-09-19T03:58:04;16.00;99.90
73572;DHT22;61854;48.510;-2.770;2023-09-19T04:00:29;16.00;99.90
73572;DHT22;61854;48.510;-2.770;2023-09-19T04:02:55;16.00;99.90
73572;DHT22;61854;48.510;-2.770;2023-09-19T04:05:22;15.90;99.90
73572;DHT22;61854;48.510;-2.770;2023-09-19T04:07:49;15.80;99.90
73572;DHT22;61854;48.510;-2.770;2023-09-19T04:10:15;15.80;99.90
73572;DHT22;61854;48.510;-2.770;2023-09-19T04:12:41;16.00;99.90
73572;DHT22;61854;48.510;-2.770;2023-09-19T04:15:15;15.80;99.90
73572;DHT22;61854;48.510;-2.770;2023-09-19T04:17:41;15.90;99.90
73572;DHT22;61854;48.510;-2.770;2023-09-19T04:20:07;16.00;99.90
73572;DHT22;61854;48.510;-2.770;2023-09-19T04:22:33;16.00;99.90
73572;DHT22;61854;48.510;-2.770;2023-09-19T04:24:59;16.00;99.90
73572;DHT22;61854;48.510;-2.770;2023-09-19T04:27:25;16.20;99.90
73572;DHT22;61854;48.510;-2.770;2023-09-19T04:29:50;16.00;99.90
73572;DHT22;61854;48.510;-2.770;2023-09-19T04:32:18;16.10;99.90
73572;DHT22;61854;48.510;-2.770;2023-09-19T04:34:44;16.00;99.90
73572;DHT22;61854;48.510;-2.770;2023-09-19T04:37:09;16.10;99.90
73572;DHT22;61854;48.510;-2.770;2023-09-19T04:39:36;16.20;99.90
73572;DHT22;61854;48.510;-2.770;2023-09-19T04:42:02;16.10;99.90
73572;DHT22;61854;48.510;-2.770;2023-09-19T04:44:28;16.20;99.90
73572;DHT22;61854;48.510;-2.770;2023-09-19T04:46:54;16.20;99.90
73572;DHT22;61854;48.510;-2.770;2023-09-19T04:49:20;16.30;99.90
73572;DHT22;61854;48.510;-2.770;2023-09-19T04:51:45;16.30;99.90
73572;DHT22;61854;48.510;-2.770;2023-09-19T04:54:12;16.20;99.90
73572;DHT22;61854;48.510;-2.770;2023-09-19T04:56:38;16.10;99.90
73572;DHT22;61854;48.510;-2.770;2023-09-19T04:59:05;16.00;99.90
73572;DHT22;61854;48.510;-2.770;2023-09-19T05:01:32;16.00;99.90
73572;DHT22;61854;48.510;-2.770;2023-09-19T05:03:57;15.90;99.90
73572;DHT22;61854;48.510;-2.770;2023-09-19T05:06:23;15.90;99.90
73572;DHT22;61854;48.510;-2.770;2023-09-19T05:08:49;15.80;99.90
73572;DHT22;61854;48.510;-2.770;2023-09-19T05:11:18;15.80;99.90
73572;DHT22;61854;48.510;-2.770;2023-09-19T05:13:44;15.90;99.90
73572;DHT22;61854;48.510;-2.770;2023-09-19T05:16:09;15.80;99.90
73572;DHT22;61854;48.510;-2.770;2023-09-19T05:18:38;16.00;99.90
73572;DHT22;61854;48.510;-2.770;2023-09-19T05:21:04;15.90;99.90
73572;DHT22;61854;48.510;-2.770;2023-09-19T05:23:29;15.80;99.90
73572;DHT22;61854;48.510;-2.770;2023-09-19T05:25:55;15.90;99.90
73572;DHT22;61854;48.510;-2.770;2023-09-19T05:28:22;15.90;99.90
73572;DHT22;61854;48.510;-2.770;2023-09-19T05:30:48;15.90;99.90
73572;DHT22;61854;48.510;-2.770;2023-09-19T05:33:14;16.00;99.90
73572;DHT22;61854;48.510;-2.770;2023-09-19T05:35:40;16.00;99.90
73572;DHT22;61854;48.510;-2.770;2023-09-19T05:38:07;15.90;99.90
73572;DHT22;61854;48.510;-2.770;2023-09-19T05:40:38;15.90;99.90
73572;DHT22;61854;48.510;-2.770;2023-09-19T05:43:06;16.00;99.90
73572;DHT22;61854;48.510;-2.770;2023-09-19T05:45:31;16.00;99.90
73572;DHT22;61854;48.510;-2.770;2023-09-19T05:48:10;16.00;99.90
73572;DHT22;61854;48.510;-2.770;2023-09-19T05:50:41;16.00;99.90
73572;DHT22;61854;48.510;-2.770;2023-09-19T05:53:07;16.00;99.90
73572;DHT22;61854;48.510;-2.770;2023-09-19T05:55:33;16.00;99.90
73572;DHT22;61854;48.510;-2.770;2023-09-19T05:57:59;16.10;99.90
73572;DHT22;61854;48.510;-2.770;2023-09-19T06:00:25;16.10;99.90
73572;DHT22;61854;48.510;-2.770;2023-09-19T06:02:53;16.10;99.90
73572;DHT22;61854;48.510;-2.770;2023-09-19T06:05:19;16.10;99.90
73572;DHT22;61854;48.510;-2.770;2023-09-19T06:07:45;16.20;99.90
73572;DHT22;61854;48.510;-2.770;2023-09-19T06:10:12;16.20;99.90
73572;DHT22;61854;48.510;-2.770;2023-09-19T06:12:42;16.10;99.90
73572;DHT22;61854;48.510;-2.770;2023-09-19T06:15:12;16.20;99.90
73572;DHT22;61854;48.510;-2.770;2023-09-19T06:17:47;16.10;99.90
73572;DHT22;61854;48.510;-2.770;2023-09-19T06:20:14;16.00;99.90
73572;DHT22;61854;48.510;-2.770;2023-09-19T06:22:41;15.90;99.90
73572;DHT22;61854;48.510;-2.770;2023-09-19T06:25:08;15.90;99.90
73572;DHT22;61854;48.510;-2.770;2023-09-19T06:27:36;16.00;99.90
73572;DHT22;61854;48.510;-2.770;2023-09-19T06:30:02;16.00;99.90
73572;DHT22;61854;48.510;-2.770;2023-09-19T06:32:28;16.00;99.90
73572;DHT22;61854;48.510;-2.770;2023-09-19T06:34:54;16.00;99.90
73572;DHT22;61854;48.510;-2.770;2023-09-19T06:37:21;16.10;99.90
73572;DHT22;61854;48.510;-2.770;2023-09-19T06:39:47;16.20;99.90
73572;DHT22;61854;48.510;-2.770;2023-09-19T06:42:16;16.10;99.90
73572;DHT22;61854;48.510;-2.770;2023-09-19T06:44:43;16.10;99.90
73572;DHT22;61854;48.510;-2.770;2023-09-19T06:47:09;16.20;99.90
73572;DHT22;61854;48.510;-2.770;2023-09-19T06:49:36;16.30;99.90
73572;DHT22;61854;48.510;-2.770;2023-09-19T06:52:02;16.30;99.90
73572;DHT22;61854;48.510;-2.770;2023-09-19T06:54:28;16.30;99.90
73572;DHT22;61854;48.510;-2.770;2023-09-19T06:57:00;16.40;99.90
73572;DHT22;61854;48.510;-2.770;2023-09-19T06:59:26;16.50;99.90
73572;DHT22;61854;48.510;-2.770;2023-09-19T07:01:51;16.50;99.90
73572;DHT22;61854;48.510;-2.770;2023-09-19T07:04:17;16.60;99.90
73572;DHT22;61854;48.510;-2.770;2023-09-19T07:06:53;16.60;99.90
73572;DHT22;61854;48.510;-2.770;2023-09-19T07:09:19;16.70;99.90
73572;DHT22;61854;48.510;-2.770;2023-09-19T07:11:45;16.60;99.90
73572;DHT22;61854;48.510;-2.770;2023-09-19T07:14:13;16.50;99.90
73572;DHT22;61854;48.510;-2.770;2023-09-19T07:16:39;16.50;99.90
73572;DHT22;61854;48.510;-2.770;2023-09-19T07:19:05;16.40;99.90
73572;DHT22;61854;48.510;-2.770;2023-09-19T07:21:31;16.60;99.90
73572;DHT22;61854;48.510;-2.770;2023-09-19T07:24:01;16.60;99.90
73572;DHT22;61854;48.510;-2.770;2023-09-19T07:26:28;16.70;99.90
73572;DHT22;61854;48.510;-2.770;2023-09-19T07:28:54;16.90;99.90
73572;DHT22;61854;48.510;-2.770;2023-09-19T07:31:20;17.20;99.90
73572;DHT22;61854;48.510;-2.770;2023-09-19T07:33:48;17.50;99.90
73572;DHT22;61854;48.510;-2.770;2023-09-19T07:36:14;17.80;99.90
73572;DHT22;61854;48.510;-2.770;2023-09-19T07:38:43;17.80;99.90
73572;DHT22;61854;48.510;-2.770;2023-09-19T07:41:09;17.80;99.90
73572;DHT22;61854;48.510;-2.770;2023-09-19T07:43:35;17.80;99.90
73572;DHT22;61854;48.510;-2.770;2023-09-19T07:46:07;17.90;99.90
73572;DHT22;61854;48.510;-2.770;2023-09-19T07:48:37;18.20;99.90
73572;DHT22;61854;48.510;-2.770;2023-09-19T07:51:07;18.20;99.90
73572;DHT22;61854;48.510;-2.770;2023-09-19T07:53:34;18.30;99.90
73572;DHT22;61854;48.510;-2.770;2023-09-19T07:56:07;18.70;99.90
73572;DHT22;61854;48.510;-2.770;2023-09-19T07:58:34;18.60;99.90
73572;DHT22;61854;48.510;-2.770;2023-09-19T08:01:04;18.40;99.90
73572;DHT22;61854;48.510;-2.770;2023-09-19T08:03:30;18.40;99.90
73572;DHT22;61854;48.510;-2.770;2023-09-19T08:05:57;18.40;99.90
73572;DHT22;61854;48.510;-2.770;2023-09-19T08:08:26;18.50;99.90
73572;DHT22;61854;48.510;-2.770;2023-09-19T08:10:56;18.60;99.90
73572;DHT22;61854;48.510;-2.770;2023-09-19T08:13:25;18.60;99.90
73572;DHT22;61854;48.510;-2.770;2023-09-19T08:15:51;18.60;99.90
73572;DHT22;61854;48.510;-2.770;2023-09-19T08:18:19;18.60;99.90
73572;DHT22;61854;48.510;-2.770;2023-09-19T08:20:51;18.60;99.90
73572;DHT22;61854;48.510;-2.770;2023-09-19T08:23:17;18.60;99.90
73572;DHT22;61854;48.510;-2.770;2023-09-19T08:25:48;18.60;99.90
73572;DHT22;61854;48.510;-2.770;2023-09-19T08:28:14;18.60;99.90
73572;DHT22;61854;48.510;-2.770;2023-09-19T08:30:47;18.60;99.90
73572;DHT22;61854;48.510;-2.770;2023-09-19T08:33:12;18.70;99.50
73572;DHT22;61854;48.510;-2.770;2023-09-19T08:35:40;18.70;99.50
73572;DHT22;61854;48.510;-2.770;2023-09-19T08:38:07;18.90;98.70
73572;DHT22;61854;48.510;-2.770;2023-09-19T08:40:37;18.90;98.50
73572;DHT22;61854;48.510;-2.770;2023-09-19T08:43:05;19.00;98.20
73572;DHT22;61854;48.510;-2.770;2023-09-19T08:45:32;19.00;98.50
73572;DHT22;61854;48.510;-2.770;2023-09-19T08:48:19;19.20;97.40
73572;DHT22;61854;48.510;-2.770;2023-09-19T08:50:56;19.10;97.30
73572;DHT22;61854;48.510;-2.770;2023-09-19T08:55:57;19.30;96.90
73572;DHT22;61854;48.510;-2.770;2023-09-19T08:58:31;19.30;96.10
73572;DHT22;61854;48.510;-2.770;2023-09-19T09:01:01;19.40;96.60
73572;DHT22;61854;48.510;-2.770;2023-09-19T09:03:32;19.30;96.90
73572;DHT22;61854;48.510;-2.770;2023-09-19T09:05:59;19.50;97.10
73572;DHT22;61854;48.510;-2.770;2023-09-19T09:08:25;19.50;96.20
73572;DHT22;61854;48.510;-2.770;2023-09-19T09:10:51;19.60;95.80
73572;DHT22;61854;48.510;-2.770;2023-09-19T09:13:17;19.50;96.20
73572;DHT22;61854;48.510;-2.770;2023-09-19T09:15:43;19.40;96.90
73572;DHT22;61854;48.510;-2.770;2023-09-19T09:18:10;19.40;96.90
73572;DHT22;61854;48.510;-2.770;2023-09-19T09:20:36;19.30;97.00
73572;DHT22;61854;48.510;-2.770;2023-09-19T09:23:02;19.50;96.60
73572;DHT22;61854;48.510;-2.770;2023-09-19T09:26:07;19.50;96.50
73572;DHT22;61854;48.510;-2.770;2023-09-19T09:28:35;19.40;96.30
73572;DHT22;61854;48.510;-2.770;2023-09-19T09:31:22;19.70;96.10
73572;DHT22;61854;48.510;-2.770;2023-09-19T09:33:56;20.00;95.10
73572;DHT22;61854;48.510;-2.770;2023-09-19T09:36:39;20.10;94.40
73572;DHT22;61854;48.510;-2.770;2023-09-19T09:39:09;20.10;93.50
73572;DHT22;61854;48.510;-2.770;2023-09-19T09:41:42;20.20;93.40
73572;DHT22;61854;48.510;-2.770;2023-09-19T09:44:16;20.30;93.10
73572;DHT22;61854;48.510;-2.770;2023-09-19T09:46:44;20.30;93.80
73572;DHT22;61854;48.510;-2.770;2023-09-19T09:49:25;20.40;92.60
73572;DHT22;61854;48.510;-2.770;2023-09-19T09:52:02;20.40;92.00
73572;DHT22;61854;48.510;-2.770;2023-09-19T09:54:33;20.50;91.90
73572;DHT22;61854;48.510;-2.770;2023-09-19T09:57:03;20.70;91.00
73572;DHT22;61854;48.510;-2.770;2023-09-19T09:59:54;20.70;90.20
73572;DHT22;61854;48.510;-2.770;2023-09-19T10:02:27;20.50;90.60
73572;DHT22;61854;48.510;-2.770;2023-09-19T10:05:13;20.30;91.10
73572;DHT22;61854;48.510;-2.770;2023-09-19T10:07:39;20.30;91.70
73572;DHT22;61854;48.510;-2.770;2023-09-19T10:10:08;20.20;91.70
73572;DHT22;61854;48.510;-2.770;2023-09-19T10:12:47;20.20;92.30
73572;DHT22;61854;48.510;-2.770;2023-09-19T10:15:15;20.20;92.60
73572;DHT22;61854;48.510;-2.770;2023-09-19T10:17:45;20.50;92.20
73572;DHT22;61854;48.510;-2.770;2023-09-19T10:20:17;20.60;91.70
73572;DHT22;61854;48.510;-2.770;2023-09-19T10:23:06;20.70;91.30
73572;DHT22;61854;48.510;-2.770;2023-09-19T10:25:40;20.70;90.50
73572;DHT22;61854;48.510;-2.770;2023-09-19T10:28:08;20.70;90.20
73572;DHT22;61854;48.510;-2.770;2023-09-19T10:30:41;20.60;90.10
73572;DHT22;61854;48.510;-2.770;2023-09-19T10:33:12;20.60;90.50
73572;DHT22;61854;48.510;-2.770;2023-09-19T10:35:46;20.50;90.50
73572;DHT22;61854;48.510;-2.770;2023-09-19T10:38:14;20.50;90.90
73572;DHT22;61854;48.510;-2.770;2023-09-19T10:40:40;20.30;90.80
73572;DHT22;61854;48.510;-2.770;2023-09-19T10:43:16;20.30;91.30
73572;DHT22;61854;48.510;-2.770;2023-09-19T10:45:45;20.30;91.70
73572;DHT22;61854;48.510;-2.770;2023-09-19T10:48:16;20.20;92.00
73572;DHT22;61854;48.510;-2.770;2023-09-19T10:53:14;20.40;91.40
73572;DHT22;61854;48.510;-2.770;2023-09-19T10:55:51;20.60;90.70
73572;DHT22;61854;48.510;-2.770;2023-09-19T10:58:27;20.60;89.40
73572;DHT22;61854;48.510;-2.770;2023-09-19T11:00:56;20.70;89.80
73572;DHT22;61854;48.510;-2.770;2023-09-19T11:03:23;20.60;89.30
73572;DHT22;61854;48.510;-2.770;2023-09-19T11:06:19;20.50;88.70
73572;DHT22;61854;48.510;-2.770;2023-09-19T11:09:04;20.70;89.40
73572;DHT22;61854;48.510;-2.770;2023-09-19T11:11:43;20.80;89.10
73572;DHT22;61854;48.510;-2.770;2023-09-19T11:30:47;20.60;90.50
73572;DHT22;61854;48.510;-2.770;2023-09-19T11:33:25;20.70;90.20
73572;DHT22;61854;48.510;-2.770;2023-09-19T11:46:27;20.80;89.40
73572;DHT22;61854;48.510;-2.770;2023-09-19T11:48:53;20.80;89.70
73572;DHT22;61854;48.510;-2.770;2023-09-19T11:51:20;20.70;90.20
73572;DHT22;61854;48.510;-2.770;2023-09-19T11:53:53;20.60;90.10
73572;DHT22;61854;48.510;-2.770;2023-09-19T11:56:24;20.50;90.80
73572;DHT22;61854;48.510;-2.770;2023-09-19T11:58:52;20.40;91.00
73572;DHT22;61854;48.510;-2.770;2023-09-19T12:01:31;20.20;90.70
73572;DHT22;61854;48.510;-2.770;2023-09-19T12:03:59;20.30;90.60
73572;DHT22;61854;48.510;-2.770;2023-09-19T12:06:27;20.10;90.90
73572;DHT22;61854;48.510;-2.770;2023-09-19T12:08:53;20.00;91.20
73572;DHT22;61854;48.510;-2.770;2023-09-19T12:11:21;20.00;91.40
73572;DHT22;61854;48.510;-2.770;2023-09-19T12:13:49;20.00;91.70
73572;DHT22;61854;48.510;-2.770;2023-09-19T12:16:19;20.00;91.80
73572;DHT22;61854;48.510;-2.770;2023-09-19T12:18:49;20.00;92.10
73572;DHT22;61854;48.510;-2.770;2023-09-19T12:26:37;20.20;91.60
73572;DHT22;61854;48.510;-2.770;2023-09-19T12:29:03;20.50;90.90
73572;DHT22;61854;48.510;-2.770;2023-09-19T12:31:31;20.40;90.90
73572;DHT22;61854;48.510;-2.770;2023-09-19T12:34:01;20.50;90.60
73572;DHT22;61854;48.510;-2.770;2023-09-19T12:36:27;20.60;90.50
73572;DHT22;61854;48.510;-2.770;2023-09-19T12:38:56;20.70;89.90
73572;DHT22;61854;48.510;-2.770;2023-09-19T12:41:25;21.00;88.30
73572;DHT22;61854;48.510;-2.770;2023-09-19T12:43:52;21.00;88.00
73572;DHT22;61854;48.510;-2.770;2023-09-19T12:46:20;20.90;87.90
73572;DHT22;61854;48.510;-2.770;2023-09-19T12:48:46;20.90;88.50
73572;DHT22;61854;48.510;-2.770;2023-09-19T12:51:13;21.00;88.10
73572;DHT22;61854;48.510;-2.770;2023-09-19T12:53:44;20.90;88.50
73572;DHT22;61854;48.510;-2.770;2023-09-19T12:56:13;20.90;88.10
73572;DHT22;61854;48.510;-2.770;2023-09-19T12:58:52;20.80;89.40
73572;DHT22;61854;48.510;-2.770;2023-09-19T13:01:24;20.90;89.30
73572;DHT22;61854;48.510;-2.770;2023-09-19T13:06:38;20.70;90.40
73572;DHT22;61854;48.510;-2.770;2023-09-19T13:09:11;20.70;90.20
73572;DHT22;61854;48.510;-2.770;2023-09-19T13:11:38;20.50;91.20
73572;DHT22;61854;48.510;-2.770;2023-09-19T13:16:57;20.50;92.00
73572;DHT22;61854;48.510;-2.770;2023-09-19T13:19:42;20.30;91.90
73572;DHT22;61854;48.510;-2.770;2023-09-19T13:22:45;20.30;91.80
73572;DHT22;61854;48.510;-2.770;2023-09-19T13:25:21;20.20;92.80
73572;DHT22;61854;48.510;-2.770;2023-09-19T13:27:55;20.00;93.90
73572;DHT22;61854;48.510;-2.770;2023-09-19T13:30:28;20.10;94.40
73572;DHT22;61854;48.510;-2.770;2023-09-19T13:35:32;19.70;96.10
73572;DHT22;61854;48.510;-2.770;2023-09-19T13:37:58;19.70;96.90
73572;DHT22;61854;48.510;-2.770;2023-09-19T13:40:24;19.70;96.90
73572;DHT22;61854;48.510;-2.770;2023-09-19T13:43:00;19.70;96.60
73572;DHT22;61854;48.510;-2.770;2023-09-19T13:45:26;19.70;96.00
73572;DHT22;61854;48.510;-2.770;2023-09-19T13:47:56;19.80;95.80
73572;DHT22;61854;48.510;-2.770;2023-09-19T13:50:21;20.00;95.70
73572;DHT22;61854;48.510;-2.770;2023-09-19T13:52:50;20.10;95.40
73572;DHT22;61854;48.510;-2.770;2023-09-19T13:55:17;20.20;95.10
73572;DHT22;61854;48.510;-2.770;2023-09-19T13:57:47;20.50;95.20
73572;DHT22;61854;48.510;-2.770;2023-09-19T14:00:16;20.70;93.50
73572;DHT22;61854;48.510;-2.770;2023-09-19T14:02:42;20.70;92.90
73572;DHT22;61854;48.510;-2.770;2023-09-19T14:05:12;20.70;92.10
73572;DHT22;61854;48.510;-2.770;2023-09-19T14:07:42;20.80;92.00
73572;DHT22;61854;48.510;-2.770;2023-09-19T14:10:09;20.70;92.30
73572;DHT22;61854;48.510;-2.770;2023-09-19T14:12:36;20.90;92.00
73572;DHT22;61854;48.510;-2.770;2023-09-19T14:15:05;20.90;91.30
73572;DHT22;61854;48.510;-2.770;2023-09-19T14:17:32;20.90;91.50
73572;DHT22;61854;48.510;-2.770;2023-09-19T14:19:58;20.80;91.30
73572;DHT22;61854;48.510;-2.770;2023-09-19T14:22:24;20.70;91.80
73572;DHT22;61854;48.510;-2.770;2023-09-19T14:24:50;20.80;91.50
73572;DHT22;61854;48.510;-2.770;2023-09-19T14:27:15;20.70;92.00
73572;DHT22;61854;48.510;-2.770;2023-09-19T14:29:42;20.50;92.00
73572;DHT22;61854;48.510;-2.770;2023-09-19T14:32:07;20.50;92.80
73572;DHT22;61854;48.510;-2.770;2023-09-19T14:34:33;20.60;92.60
73572;DHT22;61854;48.510;-2.770;2023-09-19T14:36:59;20.60;92.60
73572;DHT22;61854;48.510;-2.770;2023-09-19T14:39:24;20.60;93.00
73572;DHT22;61854;48.510;-2.770;2023-09-19T14:41:50;20.60;93.40
73572;DHT22;61854;48.510;-2.770;2023-09-19T14:44:16;20.50;93.10
73572;DHT22;61854;48.510;-2.770;2023-09-19T14:46:42;20.70;92.80
73572;DHT22;61854;48.510;-2.770;2023-09-19T14:49:11;20.60;93.10
73572;DHT22;61854;48.510;-2.770;2023-09-19T14:51:38;20.50;93.60
73572;DHT22;61854;48.510;-2.770;2023-09-19T14:54:05;20.60;93.30
73572;DHT22;61854;48.510;-2.770;2023-09-19T14:56:32;20.70;93.00
73572;DHT22;61854;48.510;-2.770;2023-09-19T14:58:58;20.50;93.40
73572;DHT22;61854;48.510;-2.770;2023-09-19T15:01:24;20.50;93.70
73572;DHT22;61854;48.510;-2.770;2023-09-19T15:03:49;20.40;94.10
73572;DHT22;61854;48.510;-2.770;2023-09-19T15:06:15;20.20;94.80
73572;DHT22;61854;48.510;-2.770;2023-09-19T15:08:44;20.20;94.80
73572;DHT22;61854;48.510;-2.770;2023-09-19T15:11:18;20.20;95.00
73572;DHT22;61854;48.510;-2.770;2023-09-19T15:13:45;20.30;94.80
73572;DHT22;61854;48.510;-2.770;2023-09-19T15:16:11;20.40;94.70
73572;DHT22;61854;48.510;-2.770;2023-09-19T15:18:41;20.50;94.20
73572;DHT22;61854;48.510;-2.770;2023-09-19T15:21:08;20.50;94.40
73572;DHT22;61854;48.510;-2.770;2023-09-19T15:23:35;20.20;94.90
73572;DHT22;61854;48.510;-2.770;2023-09-19T15:26:06;20.20;95.00
73572;DHT22;61854;48.510;-2.770;2023-09-19T15:28:32;20.20;95.10
73572;DHT22;61854;48.510;-2.770;2023-09-19T15:31:05;20.10;95.60
73572;DHT22;61854;48.510;-2.770;2023-09-19T15:33:32;20.10;95.50
73572;DHT22;61854;48.510;-2.770;2023-09-19T15:36:08;20.00;95.70
73572;DHT22;61854;48.510;-2.770;2023-09-19T15:39:04;20.00;96.00
73572;DHT22;61854;48.510;-2.770;2023-09-19T15:41:33;19.90;96.30
73572;DHT22;61854;48.510;-2.770;2023-09-19T15:44:00;19.80;96.60
73572;DHT22;61854;48.510;-2.770;2023-09-19T15:46:33;19.80;97.10
73572;DHT22;61854;48.510;-2.770;2023-09-19T15:49:00;19.90;96.50
73572;DHT22;61854;48.510;-2.770;2023-09-19T15:51:27;20.20;96.20
73572;DHT22;61854;48.510;-2.770;2023-09-19T15:53:53;20.10;96.30
73572;DHT22;61854;48.510;-2.770;2023-09-19T15:56:21;20.20;95.80
73572;DHT22;61854;48.510;-2.770;2023-09-19T15:58:47;20.30;95.70
73572;DHT22;61854;48.510;-2.770;2023-09-19T16:01:14;20.20;95.80
73572;DHT22;61854;48.510;-2.770;2023-09-19T16:03:46;20.20;96.10
73572;DHT22;61854;48.510;-2.770;2023-09-19T16:06:17;20.20;96.10
73572;DHT22;61854;48.510;-2.770;2023-09-19T16:08:45;19.90;96.70
73572;DHT22;61854;48.510;-2.770;2023-09-19T16:11:11;20.10;96.40
73572;DHT22;61854;48.510;-2.770;2023-09-19T16:13:37;20.00;96.60
73572;DHT22;61854;48.510;-2.770;2023-09-19T16:16:04;19.90;97.40
73572;DHT22;61854;48.510;-2.770;2023-09-19T16:18:30;19.80;97.80